Time;durP1;ratioP1;P1;durP2;ratioP2;P2;SDS_P1;SDS_P2;PMS_P1;PMS_P2;Temp;Humidity;BMP_temperature;BMP_pressure;BME280_temperature;BME280_humidity;BME280_pressure;Samples;Min_cycle;Max_cycle;Signal;HPM_P1;HPM_P2
2021/11/21 00:00:00;;;;;;;20.98;12.85;;;9.40;98.20;;;;;;5015242;28;20052;-80
2021/11/21 00:02:25;;;;;;;16.98;12.40;;;9.40;98.20;;;;;;5022941;28;20033;-81
2021/11/21 00:04:51;;;;;;;18.30;11.95;;;9.40;98.20;;;;;;5018890;28;20052;-80
2021/11/21 00:07:16;;;;;;;18.00;11.88;;;9.40;98.30;;;;;;5021566;28;20045;-81
2021/11/21 00:09:42;;;;;;;21.63;12.52;;;9.30;98.40;;;;;;5014412;28;20034;-81
2021/11/21 00:12:08;;;;;;;20.95;13.18;;;9.20;98.50;;;;;;5011250;28;20037;-80
2021/11/21 00:14:34;;;;;;;18.20;12.55;;;9.20;98.60;;;;;;5013408;28;20029;-80
2021/11/21 00:17:02;;;;;;;19.85;12.50;;;9.10;98.60;;;;;;5017299;28;20462;-80
2021/11/21 00:19:27;;;;;;;23.05;13.00;;;9.20;98.60;;;;;;5016301;28;20047;-80
2021/11/21 00:21:53;;;;;;;17.58;12.20;;;9.10;98.60;;;;;;5018839;28;20402;-80
2021/11/21 00:24:18;;;;;;;21.40;12.60;;;9.10;98.60;;;;;;5022976;28;20033;-80
2021/11/21 00:26:44;;;;;;;19.00;13.32;;;9.20;98.60;;;;;;5025934;28;20025;-80
2021/11/21 00:29:09;;;;;;;21.25;13.82;;;9.20;98.60;;;;;;5012665;28;20036;-80
2021/11/21 00:31:35;;;;;;;17.33;12.43;;;9.10;98.50;;;;;;5017048;28;20112;-80
2021/11/21 00:34:01;;;;;;;21.17;13.57;;;9.10;98.40;;;;;;5018643;28;20064;-80
2021/11/21 00:36:26;;;;;;;22.17;13.07;;;9.00;98.60;;;;;;5026290;28;20034;-81
2021/11/21 00:38:52;;;;;;;18.95;12.88;;;9.10;98.60;;;;;;5010539;28;20158;-81
2021/11/21 00:41:17;;;;;;;20.73;13.15;;;9.10;98.60;;;;;;5017494;28;20451;-83
2021/11/21 00:43:43;;;;;;;21.92;13.73;;;9.00;98.60;;;;;;5022270;28;20026;-81
2021/11/21 00:46:09;;;;;;;19.88;13.40;;;9.10;98.70;;;;;;5024047;28;20109;-81
2021/11/21 00:48:37;;;;;;;21.65;13.20;;;9.10;98.70;;;;;;5014219;28;20030;-81
2021/11/21 00:51:03;;;;;;;21.77;13.65;;;9.10;98.70;;;;;;5025714;28;20025;-81
2021/11/21 00:53:31;;;;;;;20.42;13.63;;;9.10;98.60;;;;;;5019956;28;20038;-81
2021/11/21 00:56:02;;;;;;;20.10;13.98;;;9.10;98.60;;;;;;5011183;28;20399;-80
2021/11/21 00:58:29;;;;;;;21.95;14.10;;;9.20;98.50;;;;;;5012395;28;20129;-81
2021/11/21 01:00:55;;;;;;;20.02;12.82;;;9.20;98.50;;;;;;5019532;28;20040;-80
2021/11/21 01:03:23;;;;;;;21.65;14.20;;;9.20;98.40;;;;;;5015058;28;20038;-81
2021/11/21 01:05:49;;;;;;;19.25;13.73;;;9.20;98.30;;;;;;5025982;28;20037;-80
2021/11/21 01:08:15;;;;;;;19.92;13.65;;;9.20;98.40;;;;;;5013348;28;20100;-80
2021/11/21 01:10:43;;;;;;;18.75;13.05;;;9.10;98.40;;;;;;5013583;28;20487;-81
2021/11/21 01:13:09;;;;;;;20.85;14.05;;;9.10;98.40;;;;;;5028784;28;20045;-81
2021/11/21 01:15:35;;;;;;;19.63;12.77;;;9.10;98.40;;;;;;5020876;28;20492;-80
2021/11/21 01:18:01;;;;;;;19.02;12.88;;;9.10;98.50;;;;;;5025734;28;20067;-80
2021/11/21 01:20:29;;;;;;;20.83;13.50;;;9.00;98.50;;;;;;5025823;28;20026;-80
2021/11/21 01:22:55;;;;;;;20.30;13.50;;;9.00;98.50;;;;;;5015473;28;20041;-80
2021/11/21 01:25:22;;;;;;;23.63;15.30;;;8.90;98.50;;;;;;5021607;28;20529;-80
2021/11/21 01:27:48;;;;;;;26.27;14.38;;;8.90;98.60;;;;;;5027638;28;20061;-80
2021/11/21 01:30:17;;;;;;;18.58;12.98;;;8.90;98.60;;;;;;5026374;28;20025;-80
2021/11/21 01:32:43;;;;;;;24.60;13.43;;;8.90;98.50;;;;;;5018913;28;20057;-80
2021/11/21 01:35:10;;;;;;;21.00;14.02;;;8.90;98.50;;;;;;5023885;28;20033;-80
2021/11/21 01:37:36;;;;;;;21.08;14.10;;;8.90;98.50;;;;;;5015069;28;20119;-80
2021/11/21 01:40:04;;;;;;;20.48;13.60;;;8.90;98.50;;;;;;5012250;28;20459;-80
2021/11/21 01:42:30;;;;;;;20.88;14.07;;;8.80;98.60;;;;;;5025262;28;20029;-80
2021/11/21 01:44:55;;;;;;;18.42;13.27;;;8.80;98.60;;;;;;5029225;28;20156;-80
2021/11/21 01:47:21;;;;;;;18.60;12.60;;;8.80;98.80;;;;;;5031440;28;20567;-80
2021/11/21 01:49:46;;;;;;;21.88;13.57;;;8.80;98.60;;;;;;5027404;28;20057;-80
2021/11/21 01:52:12;;;;;;;22.48;14.60;;;8.80;98.60;;;;;;5024092;28;20434;-79
2021/11/21 01:54:37;;;;;;;20.92;14.27;;;8.70;98.80;;;;;;5024645;28;20132;-80
2021/11/21 01:57:03;;;;;;;19.33;12.80;;;8.80;98.70;;;;;;5022773;28;20474;-80
2021/11/21 01:59:30;;;;;;;25.02;14.85;;;8.70;98.70;;;;;;5030101;28;20109;-80
2021/11/21 02:01:56;;;;;;;22.10;13.80;;;8.70;98.70;;;;;;5031244;28;20044;-80
2021/11/21 02:04:21;;;;;;;23.15;13.90;;;8.80;98.80;;;;;;5021002;28;20108;-80
2021/11/21 02:06:47;;;;;;;19.70;13.43;;;8.80;98.70;;;;;;5029714;28;20601;-80
2021/11/21 02:09:13;;;;;;;19.65;14.13;;;8.80;98.50;;;;;;5021122;28;20030;-80
2021/11/21 02:11:39;;;;;;;21.23;14.13;;;8.70;98.70;;;;;;5025473;28;20084;-80
2021/11/21 02:14:04;;;;;;;19.00;13.30;;;8.80;98.60;;;;;;5021726;28;20063;-80
2021/11/21 02:16:31;;;;;;;22.23;14.40;;;8.80;98.70;;;;;;5017068;28;20456;-80
2021/11/21 02:18:58;;;;;;;23.05;14.82;;;8.80;98.60;;;;;;5020332;28;20439;-79
2021/11/21 02:21:24;;;;;;;19.75;14.48;;;8.80;98.50;;;;;;5030563;28;20033;-80
2021/11/21 02:23:50;;;;;;;21.08;14.02;;;8.90;98.50;;;;;;5031657;28;20087;-79
2021/11/21 02:26:17;;;;;;;21.67;13.65;;;8.90;98.40;;;;;;5023261;28;20033;-80
2021/11/21 02:28:45;;;;;;;21.10;13.50;;;8.90;98.50;;;;;;5023108;28;20080;-80
2021/11/21 02:31:14;;;;;;;20.15;13.68;;;8.90;98.40;;;;;;5024353;28;20026;-81
2021/11/21 02:33:41;;;;;;;20.48;13.65;;;8.90;98.40;;;;;;5013707;28;20029;-80
2021/11/21 02:36:08;;;;;;;20.42;14.10;;;8.90;98.40;;;;;;5022203;28;20049;-80
2021/11/21 02:38:35;;;;;;;19.17;12.63;;;8.90;98.30;;;;;;5020983;28;20085;-80
2021/11/21 02:41:07;;;;;;;19.40;12.93;;;8.90;98.20;;;;;;5026259;28;20777;-81
2021/11/21 02:43:33;;;;;;;19.08;11.25;;;8.90;98.20;;;;;;5018121;28;20535;-80
2021/11/21 02:45:58;;;;;;;20.77;13.45;;;8.90;98.20;;;;;;5024762;28;20041;-81
2021/11/21 02:48:27;;;;;;;19.60;13.43;;;8.90;98.40;;;;;;5026141;28;20100;-82
2021/11/21 02:50:54;;;;;;;20.33;13.27;;;8.90;98.20;;;;;;5025469;28;20113;-81
2021/11/21 02:53:22;;;;;;;17.95;12.60;;;8.90;98.30;;;;;;5023844;28;20030;-81
2021/11/21 02:55:51;;;;;;;21.67;14.85;;;9.00;98.20;;;;;;5024556;28;20046;-81
2021/11/21 02:58:17;;;;;;;19.55;13.35;;;9.00;98.20;;;;;;5020029;28;20088;-81
2021/11/21 03:00:42;;;;;;;21.48;13.40;;;9.00;98.00;;;;;;5027270;28;20076;-82
2021/11/21 03:03:08;;;;;;;19.67;13.90;;;9.00;98.20;;;;;;5041413;28;20026;-80
2021/11/21 03:05:35;;;;;;;22.95;15.10;;;8.90;98.00;;;;;;5020151;28;20030;-80
2021/11/21 03:08:02;;;;;;;21.65;13.88;;;9.00;98.10;;;;;;5015464;28;20037;-81
2021/11/21 03:10:28;;;;;;;20.90;14.05;;;9.00;98.20;;;;;;5018941;28;20483;-81
2021/11/21 03:12:56;;;;;;;19.20;12.68;;;9.00;98.10;;;;;;5019021;28;20041;-81
2021/11/21 03:15:22;;;;;;;18.70;12.57;;;9.00;98.10;;;;;;5021680;28;20030;-81
2021/11/21 03:17:49;;;;;;;20.65;14.13;;;9.00;98.00;;;;;;5015782;28;20521;-81
2021/11/21 03:20:19;;;;;;;18.38;13.18;;;9.00;98.00;;;;;;5019072;28;20032;-82
2021/11/21 03:22:45;;;;;;;18.33;12.60;;;9.00;98.30;;;;;;5013693;28;20026;-82
2021/11/21 03:25:12;;;;;;;16.40;11.75;;;8.90;98.20;;;;;;5013736;28;20092;-81
2021/11/21 03:27:38;;;;;;;19.20;12.10;;;8.90;98.20;;;;;;5021944;28;20818;-82
2021/11/21 03:30:05;;;;;;;17.95;12.70;;;8.90;98.20;;;;;;5021542;28;20087;-81
2021/11/21 03:32:31;;;;;;;19.55;12.88;;;8.90;98.10;;;;;;5024025;28;20026;-82
2021/11/21 03:34:57;;;;;;;17.92;12.45;;;8.90;98.10;;;;;;5024523;28;20478;-82
2021/11/21 03:37:23;;;;;;;19.45;13.00;;;9.00;98.10;;;;;;5013320;28;20037;-81
2021/11/21 03:39:49;;;;;;;19.85;13.73;;;9.00;98.20;;;;;;5018261;28;20049;-82
2021/11/21 03:42:15;;;;;;;16.38;11.88;;;9.00;98.00;;;;;;5013444;28;20021;-81
2021/11/21 03:44:40;;;;;;;18.50;12.98;;;9.00;98.00;;;;;;5038394;28;20634;-82
2021/11/21 03:47:06;;;;;;;17.65;12.63;;;9.00;98.10;;;;;;5017888;28;20079;-81
2021/11/21 03:49:31;;;;;;;21.20;12.25;;;9.00;98.20;;;;;;5016038;28;20242;-82
2021/11/21 03:51:57;;;;;;;19.58;13.90;;;9.00;98.10;;;;;;5018383;28;20100;-79
2021/11/21 03:54:22;;;;;;;18.25;12.70;;;8.90;98.10;;;;;;5021416;28;20022;-81
2021/11/21 03:56:48;;;;;;;20.80;13.43;;;8.90;98.30;;;;;;5025746;28;20045;-81
2021/11/21 03:59:13;;;;;;;18.52;12.25;;;8.90;98.30;;;;;;5015407;28;20053;-81
2021/11/21 04:01:39;;;;;;;18.35;12.82;;;9.00;98.40;;;;;;5025433;28;20614;-81
2021/11/21 04:04:06;;;;;;;19.85;13.32;;;9.00;98.10;;;;;;5025240;28;20421;-81
2021/11/21 04:06:32;;;;;;;19.95;13.27;;;9.00;98.00;;;;;;5016386;28;20072;-81
2021/11/21 04:08:58;;;;;;;19.90;13.82;;;9.10;97.90;;;;;;5015896;28;20104;-81
2021/11/21 04:11:24;;;;;;;20.90;12.70;;;9.00;98.00;;;;;;5008398;28;20678;-81
2021/11/21 04:13:49;;;;;;;17.63;12.55;;;9.10;97.90;;;;;;5012446;28;20468;-81
2021/11/21 04:16:15;;;;;;;18.70;12.48;;;9.10;97.90;;;;;;5025670;28;20084;-82
2021/11/21 04:18:42;;;;;;;19.25;12.68;;;9.10;97.80;;;;;;5019115;28;20025;-82
2021/11/21 04:21:08;;;;;;;17.48;12.45;;;9.10;97.70;;;;;;5013166;28;20064;-81
2021/11/21 04:23:34;;;;;;;19.02;13.93;;;9.10;97.80;;;;;;5018612;28;20030;-82
2021/11/21 04:25:59;;;;;;;18.83;13.25;;;9.10;97.80;;;;;;5037442;28;20116;-82
2021/11/21 04:28:26;;;;;;;20.67;13.13;;;9.10;97.70;;;;;;5022312;28;20095;-82
2021/11/21 04:30:53;;;;;;;19.30;12.85;;;9.10;97.80;;;;;;5020887;28;20041;-81
2021/11/21 04:33:23;;;;;;;18.05;12.70;;;9.20;97.80;;;;;;5031670;28;20025;-79
2021/11/21 04:35:48;;;;;;;19.98;13.40;;;9.10;97.80;;;;;;5050568;28;20025;-81
2021/11/21 04:38:15;;;;;;;18.35;13.40;;;9.10;97.80;;;;;;5035618;28;20056;-81
2021/11/21 04:40:42;;;;;;;17.98;12.27;;;9.10;97.70;;;;;;5049012;28;20055;-81
2021/11/21 04:43:07;;;;;;;21.02;14.00;;;9.10;97.80;;;;;;5051871;28;20024;-82
2021/11/21 04:45:33;;;;;;;19.02;11.20;;;9.10;97.80;;;;;;5041213;28;20450;-82
2021/11/21 04:47:59;;;;;;;18.08;13.50;;;9.10;97.80;;;;;;5027767;28;20025;-81
2021/11/21 04:50:25;;;;;;;20.80;13.73;;;9.10;97.90;;;;;;5029128;28;20074;-81
2021/11/21 04:52:50;;;;;;;20.75;13.73;;;9.10;97.80;;;;;;5025904;28;20029;-80
2021/11/21 04:55:16;;;;;;;17.08;12.02;;;9.10;97.90;;;;;;5029361;28;20052;-80
2021/11/21 04:57:42;;;;;;;19.67;12.95;;;9.10;97.90;;;;;;5030685;28;20486;-80
2021/11/21 05:00:15;;;;;;;19.00;13.50;;;9.20;97.80;;;;;;5021241;28;20029;-80
2021/11/21 05:02:45;;;;;;;19.40;12.27;;;9.20;97.80;;;;;;5041138;28;20036;-80
2021/11/21 05:05:11;;;;;;;20.00;12.85;;;9.20;97.90;;;;;;5034234;28;20038;-80
2021/11/21 05:07:36;;;;;;;21.65;13.70;;;9.20;97.70;;;;;;5027545;28;20052;-82
2021/11/21 05:10:07;;;;;;;18.52;13.07;;;9.30;97.90;;;;;;5021217;28;20084;-82
2021/11/21 05:12:32;;;;;;;20.30;14.20;;;9.30;97.80;;;;;;5017558;28;20026;-81
2021/11/21 05:14:59;;;;;;;18.05;12.57;;;9.30;97.80;;;;;;5029235;28;21410;-80
2021/11/21 05:17:25;;;;;;;18.55;12.32;;;9.30;97.80;;;;;;5029881;28;20026;-82
2021/11/21 05:19:51;;;;;;;18.52;11.73;;;9.30;97.90;;;;;;5030025;28;20479;-80
2021/11/21 05:22:17;;;;;;;17.50;12.38;;;9.20;98.00;;;;;;5016262;28;20493;-81
2021/11/21 05:24:42;;;;;;;17.23;12.13;;;9.20;98.10;;;;;;5016269;28;20033;-82
2021/11/21 05:27:08;;;;;;;18.88;12.90;;;9.20;98.10;;;;;;5044363;28;20037;-82
2021/11/21 05:29:33;;;;;;;18.67;12.60;;;9.20;98.20;;;;;;5017884;28;20033;-81
2021/11/21 05:31:59;;;;;;;19.58;12.90;;;9.10;98.30;;;;;;5032873;28;20059;-81
2021/11/21 05:34:24;;;;;;;20.70;12.85;;;9.10;98.30;;;;;;5033697;28;20064;-81
2021/11/21 05:36:50;;;;;;;20.60;12.98;;;9.10;98.30;;;;;;5037384;28;20033;-82
2021/11/21 05:39:16;;;;;;;19.65;13.48;;;9.10;98.20;;;;;;5038779;28;20030;-82
2021/11/21 05:41:42;;;;;;;21.00;12.88;;;9.10;98.20;;;;;;5034430;28;20018;-82
2021/11/21 05:44:08;;;;;;;22.30;12.95;;;9.10;98.30;;;;;;5040821;28;20037;-82
2021/11/21 05:46:34;;;;;;;20.77;12.75;;;9.10;98.30;;;;;;5051128;28;20043;-82
2021/11/21 05:49:00;;;;;;;20.90;12.32;;;9.10;98.40;;;;;;5029683;28;20028;-82
2021/11/21 05:51:26;;;;;;;19.90;11.40;;;9.10;98.40;;;;;;5024438;28;20682;-82
2021/11/21 05:53:52;;;;;;;21.30;11.63;;;9.10;98.30;;;;;;5031017;28;20033;-82
2021/11/21 05:56:19;;;;;;;19.73;12.57;;;9.10;98.30;;;;;;5031007;28;20045;-81
2021/11/21 05:58:47;;;;;;;18.77;12.20;;;9.10;98.40;;;;;;5030306;28;20418;-81
2021/11/21 06:01:14;;;;;;;19.40;12.95;;;9.10;98.40;;;;;;5032114;28;20064;-83
2021/11/21 06:03:39;;;;;;;19.05;12.23;;;9.00;98.40;;;;;;5027437;28;20021;-83
2021/11/21 06:06:05;;;;;;;18.35;11.30;;;9.00;98.40;;;;;;5032385;28;20052;-82
2021/11/21 06:08:30;;;;;;;20.27;12.90;;;9.00;98.40;;;;;;5020673;28;20040;-81
2021/11/21 06:10:56;;;;;;;18.15;12.60;;;9.00;98.30;;;;;;5024999;28;20029;-81
2021/11/21 06:13:24;;;;;;;18.35;12.40;;;9.00;98.40;;;;;;5018914;28;20037;-81
2021/11/21 06:15:50;;;;;;;18.70;12.70;;;9.00;98.40;;;;;;5025176;28;20038;-81
2021/11/21 06:18:16;;;;;;;19.92;12.93;;;8.90;98.40;;;;;;5028931;28;20033;-82
2021/11/21 06:20:41;;;;;;;23.13;13.35;;;9.00;98.50;;;;;;5024472;28;20034;-80
2021/11/21 06:23:07;;;;;;;20.05;12.82;;;9.00;98.40;;;;;;5025706;28;20044;-79
2021/11/21 06:25:32;;;;;;;19.67;12.98;;;9.00;98.50;;;;;;5020740;28;20581;-81
2021/11/21 06:27:58;;;;;;;20.15;12.80;;;9.00;98.30;;;;;;5022811;28;20028;-82
2021/11/21 06:30:23;;;;;;;22.42;12.57;;;9.00;98.50;;;;;;5026093;28;20033;-81
2021/11/21 06:32:49;;;;;;;17.25;12.63;;;9.00;98.40;;;;;;5028937;28;20511;-81
2021/11/21 06:35:14;;;;;;;19.67;12.90;;;9.00;98.40;;;;;;5028202;28;20056;-82
2021/11/21 06:37:43;;;;;;;18.15;11.85;;;9.00;98.30;;;;;;5026674;28;20025;-81
2021/11/21 06:40:09;;;;;;;20.85;12.95;;;9.00;98.30;;;;;;5026418;28;20490;-81
2021/11/21 06:42:34;;;;;;;18.52;12.52;;;9.00;98.30;;;;;;5026632;28;20033;-80
2021/11/21 06:45:00;;;;;;;18.75;12.05;;;9.00;98.20;;;;;;5023529;28;20029;-82
2021/11/21 06:47:26;;;;;;;19.08;11.48;;;9.00;98.20;;;;;;5019510;28;20562;-80
2021/11/21 06:49:51;;;;;;;20.58;13.02;;;9.00;98.20;;;;;;5027307;28;20021;-81
2021/11/21 06:52:18;;;;;;;18.63;11.27;;;8.90;98.30;;;;;;5030041;28;20017;-82
2021/11/21 06:54:44;;;;;;;19.35;13.15;;;9.00;98.30;;;;;;5028425;28;20032;-81
2021/11/21 06:57:11;;;;;;;19.27;12.05;;;8.90;98.30;;;;;;5023065;28;20025;-81
2021/11/21 06:59:36;;;;;;;20.13;13.30;;;9.00;98.20;;;;;;5025701;28;20485;-81
2021/11/21 07:02:02;;;;;;;19.40;13.38;;;9.00;98.10;;;;;;5028750;28;20033;-82
2021/11/21 07:04:28;;;;;;;19.02;12.27;;;9.00;98.20;;;;;;5023012;28;20037;-81
2021/11/21 07:06:53;;;;;;;20.23;12.35;;;9.00;98.20;;;;;;5025778;28;20446;-82
2021/11/21 07:09:19;;;;;;;18.52;12.25;;;8.90;98.10;;;;;;5027032;28;20036;-81
2021/11/21 07:11:46;;;;;;;21.40;12.02;;;8.90;98.30;;;;;;5030761;28;20055;-80
2021/11/21 07:14:12;;;;;;;22.05;13.27;;;9.00;98.30;;;;;;5023169;28;20025;-81
2021/11/21 07:16:41;;;;;;;19.42;12.82;;;9.00;98.20;;;;;;5022591;28;20092;-81
2021/11/21 07:19:07;;;;;;;21.05;13.15;;;9.10;97.90;;;;;;5033454;28;20024;-80
2021/11/21 07:21:33;;;;;;;20.83;13.27;;;8.90;98.10;;;;;;5014715;28;20034;-80
2021/11/21 07:23:59;;;;;;;20.30;12.70;;;9.00;98.10;;;;;;5024408;28;20076;-80
2021/11/21 07:26:24;;;;;;;18.77;12.30;;;9.00;98.10;;;;;;5022952;28;20033;-80
2021/11/21 07:28:50;;;;;;;18.38;10.93;;;9.00;98.00;;;;;;5030271;28;20076;-80
2021/11/21 07:31:15;;;;;;;18.73;12.02;;;9.00;98.10;;;;;;5026575;28;20493;-80
2021/11/21 07:33:41;;;;;;;21.13;12.93;;;9.00;97.90;;;;;;5027249;28;20684;-80
2021/11/21 07:36:06;;;;;;;20.83;11.57;;;9.00;97.90;;;;;;5014841;28;20065;-81
2021/11/21 07:38:32;;;;;;;18.15;12.43;;;9.00;97.90;;;;;;5019847;28;20144;-81
2021/11/21 07:40:58;;;;;;;20.08;12.73;;;9.00;97.80;;;;;;5017494;28;20101;-80
2021/11/21 07:43:24;;;;;;;18.58;11.48;;;9.10;97.80;;;;;;5026126;28;20056;-80
2021/11/21 07:45:52;;;;;;;19.33;12.38;;;9.10;98.00;;;;;;5027324;28;20033;-80
2021/11/21 07:48:17;;;;;;;19.00;11.55;;;9.00;97.70;;;;;;5032479;28;20025;-79
2021/11/21 07:50:43;;;;;;;22.08;13.18;;;9.00;97.70;;;;;;5030312;28;20087;-79
2021/11/21 07:53:09;;;;;;;17.52;10.30;;;9.10;97.70;;;;;;5023114;28;20098;-79
2021/11/21 07:55:34;;;;;;;21.95;12.13;;;9.10;97.60;;;;;;5050364;28;20101;-79
2021/11/21 07:58:00;;;;;;;19.80;12.10;;;9.10;97.70;;;;;;5040036;28;20088;-81
2021/11/21 08:00:25;;;;;;;16.17;10.73;;;9.10;97.70;;;;;;5025267;28;20038;-80
2021/11/21 08:02:51;;;;;;;19.80;11.68;;;9.10;97.70;;;;;;5022722;28;20041;-81
2021/11/21 08:05:17;;;;;;;21.38;11.88;;;9.10;97.70;;;;;;5016940;28;20584;-80
2021/11/21 08:07:42;;;;;;;16.83;10.43;;;9.00;97.90;;;;;;5020218;28;20384;-82
2021/11/21 08:10:09;;;;;;;20.10;12.43;;;9.00;98.10;;;;;;5020931;28;20108;-80
2021/11/21 08:12:35;;;;;;;19.75;11.82;;;9.00;97.70;;;;;;5020287;28;20045;-80
2021/11/21 08:15:00;;;;;;;19.40;12.65;;;8.90;97.90;;;;;;5009449;28;20037;-80
2021/11/21 08:17:26;;;;;;;20.85;11.85;;;8.90;98.00;;;;;;5027930;28;20043;-81
2021/11/21 08:19:52;;;;;;;21.23;12.13;;;8.90;98.00;;;;;;5024025;28;20049;-80
2021/11/21 08:22:18;;;;;;;19.27;11.98;;;8.90;98.10;;;;;;5020047;28;20036;-81
2021/11/21 08:24:43;;;;;;;20.95;12.50;;;8.90;98.20;;;;;;5027399;28;20040;-80
2021/11/21 08:27:13;;;;;;;20.63;12.60;;;8.90;98.10;;;;;;5014488;28;20108;-81
2021/11/21 08:29:41;;;;;;;19.30;12.43;;;8.90;98.20;;;;;;5016058;28;20499;-79
2021/11/21 08:32:08;;;;;;;20.75;12.43;;;8.90;98.10;;;;;;5024778;28;20421;-80
2021/11/21 08:34:33;;;;;;;20.90;12.52;;;8.90;98.10;;;;;;5018762;28;20063;-80
2021/11/21 08:36:59;;;;;;;19.90;11.98;;;8.90;98.10;;;;;;5028649;28;20120;-82
2021/11/21 08:39:25;;;;;;;22.42;12.43;;;9.00;98.10;;;;;;5025016;28;20033;-80
2021/11/21 08:41:53;;;;;;;20.98;13.05;;;9.00;98.10;;;;;;5023267;28;20045;-81
2021/11/21 08:44:19;;;;;;;20.52;12.18;;;9.00;97.80;;;;;;5021656;28;20026;-80
2021/11/21 08:46:46;;;;;;;22.67;12.13;;;9.00;97.90;;;;;;5026575;28;20034;-80
2021/11/21 08:49:12;;;;;;;21.02;12.93;;;9.10;97.70;;;;;;5021473;28;20037;-80
2021/11/21 08:51:40;;;;;;;27.35;12.55;;;9.10;97.70;;;;;;5025470;28;20029;-82
2021/11/21 08:54:06;;;;;;;22.83;12.18;;;9.10;97.60;;;;;;5023847;28;20034;-81
2021/11/21 08:56:31;;;;;;;21.70;12.85;;;9.10;97.60;;;;;;5025751;28;20535;-80
2021/11/21 08:58:57;;;;;;;20.50;12.05;;;9.10;97.70;;;;;;5027100;28;20037;-80
2021/11/21 09:01:23;;;;;;;19.15;11.93;;;9.10;97.60;;;;;;5022381;28;20040;-80
2021/11/21 09:03:51;;;;;;;18.42;11.20;;;9.10;97.60;;;;;;5028595;28;20086;-79
2021/11/21 09:06:17;;;;;;;22.08;12.93;;;9.10;97.60;;;;;;5035197;28;20092;-79
2021/11/21 09:08:42;;;;;;;19.02;11.57;;;9.10;97.60;;;;;;5018658;28;20033;-80
2021/11/21 09:11:08;;;;;;;18.75;11.65;;;9.10;97.60;;;;;;5025820;28;20386;-79
2021/11/21 09:13:34;;;;;;;23.60;11.93;;;9.10;97.60;;;;;;5019785;28;20453;-81
2021/11/21 09:16:00;;;;;;;17.88;11.15;;;9.10;97.70;;;;;;5019703;28;20041;-80
2021/11/21 09:18:26;;;;;;;16.58;10.32;;;9.10;97.60;;;;;;5018704;28;20033;-80
2021/11/21 09:20:54;;;;;;;19.25;12.23;;;9.10;97.50;;;;;;5014815;28;20105;-81
2021/11/21 09:23:20;;;;;;;20.27;13.02;;;9.10;97.70;;;;;;5014930;28;20475;-79
2021/11/21 09:25:46;;;;;;;18.75;11.25;;;9.10;97.50;;;;;;5025003;28;20082;-79
2021/11/21 09:28:11;;;;;;;17.75;10.90;;;9.20;97.40;;;;;;5022107;28;20041;-80
2021/11/21 09:30:37;;;;;;;19.90;11.10;;;9.10;97.40;;;;;;5026046;28;20041;-80
2021/11/21 09:33:03;;;;;;;17.05;10.60;;;9.10;97.60;;;;;;5012734;28;20180;-78
2021/11/21 09:35:29;;;;;;;19.27;11.38;;;9.20;97.40;;;;;;5035553;28;20037;-79
2021/11/21 09:37:55;;;;;;;17.63;12.07;;;9.20;97.30;;;;;;5029499;28;20036;-80
2021/11/21 09:40:20;;;;;;;19.85;12.52;;;9.20;97.40;;;;;;5033702;28;20029;-80
2021/11/21 09:42:49;;;;;;;19.55;10.98;;;9.30;97.00;;;;;;5019723;28;20077;-80
2021/11/21 09:45:16;;;;;;;18.60;11.10;;;9.30;97.20;;;;;;5028257;28;20033;-79
2021/11/21 09:47:51;;;;;;;18.63;12.00;;;9.40;97.20;;;;;;5023327;28;20364;-80
2021/11/21 09:50:17;;;;;;;18.48;11.02;;;9.40;96.70;;;;;;5014051;28;20037;-80
2021/11/21 09:52:42;;;;;;;20.02;12.52;;;9.50;97.00;;;;;;5024847;28;20040;-80
2021/11/21 09:55:08;;;;;;;17.08;10.50;;;9.60;96.90;;;;;;5026324;28;20405;-80
2021/11/21 09:57:36;;;;;;;16.13;10.07;;;9.60;96.50;;;;;;5022218;28;20029;-80
2021/11/21 10:00:08;;;;;;;15.40;9.98;;;9.60;96.70;;;;;;5024677;28;20037;-77
2021/11/21 10:02:36;;;;;;;17.75;10.57;;;9.70;96.50;;;;;;5020392;28;20029;-79
2021/11/21 10:05:28;;;;;;;17.20;10.23;;;9.70;96.40;;;;;;5028284;28;20033;-79
2021/11/21 10:08:22;;;;;;;16.55;10.45;;;9.80;96.30;;;;;;5020713;28;20498;-80
2021/11/21 10:11:08;;;;;;;17.95;11.13;;;9.80;96.20;;;;;;5022395;28;20222;-81
2021/11/21 10:13:36;;;;;;;13.77;9.55;;;9.90;96.30;;;;;;5022279;28;20129;-79
2021/11/21 10:16:22;;;;;;;15.75;10.63;;;9.90;96.10;;;;;;5010643;28;20230;-79
2021/11/21 10:18:55;;;;;;;19.67;13.23;;;10.00;96.10;;;;;;5035611;28;20037;-81
2021/11/21 10:21:24;;;;;;;16.65;10.05;;;10.10;96.00;;;;;;5020145;28;20044;-80
2021/11/21 10:24:08;;;;;;;15.07;9.18;;;10.10;96.00;;;;;;5015249;28;20056;-80
2021/11/21 10:26:34;;;;;;;17.50;10.00;;;10.10;95.60;;;;;;5025826;28;20037;-81
2021/11/21 10:28:59;;;;;;;16.55;10.93;;;10.20;95.80;;;;;;5010448;28;20092;-80
2021/11/21 10:31:30;;;;;;;19.60;11.05;;;10.20;95.70;;;;;;5017848;28;20410;-81
2021/11/21 10:33:58;;;;;;;17.05;10.93;;;10.20;95.40;;;;;;5018287;28;20033;-81
2021/11/21 10:36:38;;;;;;;18.05;10.05;;;10.30;95.50;;;;;;5021847;28;20030;-80
2021/11/21 10:39:08;;;;;;;15.27;10.07;;;10.40;95.00;;;;;;5019551;28;20069;-80
2021/11/21 10:41:37;;;;;;;15.55;9.95;;;10.30;95.40;;;;;;5024423;28;20112;-81
2021/11/21 10:44:13;;;;;;;14.25;9.70;;;10.40;95.60;;;;;;5021371;28;20188;-80
2021/11/21 10:46:44;;;;;;;14.15;9.82;;;10.40;95.70;;;;;;5024049;28;20040;-81
2021/11/21 10:49:34;;;;;;;16.30;10.00;;;10.50;95.50;;;;;;5020717;28;20053;-80
2021/11/21 10:52:18;;;;;;;16.13;10.45;;;10.60;95.20;;;;;;5019797;28;20033;-80
2021/11/21 10:54:53;;;;;;;14.57;10.40;;;10.70;94.80;;;;;;5027321;28;20036;-80
2021/11/21 10:57:25;;;;;;;17.38;10.20;;;10.70;95.10;;;;;;5013091;28;20561;-80
2021/11/21 10:59:55;;;;;;;15.57;9.90;;;10.70;95.20;;;;;;5020343;28;20033;-81
2021/11/21 11:02:31;;;;;;;16.67;10.07;;;10.70;94.70;;;;;;5023340;28;20026;-81
2021/11/21 11:05:09;;;;;;;15.85;9.23;;;10.70;94.90;;;;;;5017877;28;20038;-80
2021/11/21 11:07:41;;;;;;;18.02;11.02;;;10.60;94.90;;;;;;5015402;28;20462;-80
2021/11/21 11:10:18;;;;;;;15.90;9.45;;;10.70;95.10;;;;;;5030713;28;20038;-80
2021/11/21 11:12:46;;;;;;;12.73;8.85;;;10.70;95.20;;;;;;5035021;28;20030;-81
2021/11/21 11:15:12;;;;;;;19.73;11.02;;;10.60;95.20;;;;;;5016207;28;20088;-80
2021/11/21 11:17:39;;;;;;;16.38;10.63;;;10.60;95.40;;;;;;5013028;28;20030;-81
2021/11/21 11:20:08;;;;;;;16.27;11.05;;;10.60;95.00;;;;;;5013899;28;20033;-80
2021/11/21 11:22:34;;;;;;;16.35;10.00;;;10.60;95.10;;;;;;5012433;28;20029;-81
2021/11/21 11:25:03;;;;;;;14.25;9.63;;;10.60;95.10;;;;;;5016953;28;20026;-80
2021/11/21 11:27:47;;;;;;;18.38;10.00;;;10.50;95.20;;;;;;5010404;28;20036;-80
2021/11/21 11:30:15;;;;;;;16.65;9.73;;;10.60;95.40;;;;;;5018076;28;20116;-81
2021/11/21 11:32:43;;;;;;;13.43;9.25;;;10.40;96.00;;;;;;5027835;28;20025;-80
2021/11/21 11:35:17;;;;;;;15.90;9.50;;;10.30;96.40;;;;;;5020421;28;20747;-81
2021/11/21 11:37:46;;;;;;;16.67;10.18;;;10.40;96.40;;;;;;5027137;28;20033;-81
2021/11/21 11:40:32;;;;;;;17.75;11.23;;;10.30;96.70;;;;;;5013448;28;20033;-80
2021/11/21 11:43:17;;;;;;;19.05;11.00;;;10.20;97.10;;;;;;5026743;28;20084;-79
2021/11/21 11:45:55;;;;;;;16.20;10.50;;;10.20;97.30;;;;;;5029939;28;20041;-80
2021/11/21 11:48:33;;;;;;;20.45;11.20;;;10.10;97.70;;;;;;5015248;28;20029;-79
2021/11/21 11:51:10;;;;;;;18.33;10.90;;;10.00;98.00;;;;;;5022839;28;20021;-80
2021/11/21 11:53:47;;;;;;;17.35;10.85;;;9.90;98.30;;;;;;5023237;28;20026;-79
2021/11/21 11:56:22;;;;;;;18.95;10.43;;;10.00;98.50;;;;;;5032147;28;20079;-80
2021/11/21 11:58:55;;;;;;;17.80;11.52;;;10.00;98.70;;;;;;5029044;28;20079;-79
2021/11/21 12:01:39;;;;;;;16.52;10.48;;;10.00;99.00;;;;;;5014755;28;20049;-78
2021/11/21 12:04:06;;;;;;;22.00;10.98;;;10.10;99.10;;;;;;5018713;28;20034;-79
2021/11/21 12:06:41;;;;;;;20.40;11.57;;;10.10;99.40;;;;;;5022564;28;20029;-80
2021/11/21 12:09:16;;;;;;;19.55;10.85;;;10.10;99.50;;;;;;5016762;28;20025;-81
2021/11/21 12:11:56;;;;;;;18.70;10.93;;;10.20;99.40;;;;;;5010644;28;20049;-81
2021/11/21 12:14:28;;;;;;;23.13;12.40;;;10.10;99.60;;;;;;5026359;28;20390;-80
2021/11/21 12:17:11;;;;;;;20.30;11.77;;;10.10;99.80;;;;;;5023789;28;20048;-80
2021/11/21 12:19:46;;;;;;;22.65;12.15;;;10.00;99.90;;;;;;5015487;28;20079;-80
2021/11/21 12:22:24;;;;;;;22.50;12.82;;;10.00;99.90;;;;;;5011206;28;20030;-81
2021/11/21 12:24:55;;;;;;;21.65;13.15;;;9.90;99.90;;;;;;5017714;28;20056;-80
2021/11/21 12:27:27;;;;;;;20.25;12.20;;;9.90;99.90;;;;;;5022808;28;20033;-82
2021/11/21 12:30:07;;;;;;;20.58;11.75;;;9.90;99.90;;;;;;5010280;28;20490;-80
2021/11/21 12:32:43;;;;;;;20.10;11.85;;;9.80;99.90;;;;;;5014875;28;20025;-80
2021/11/21 12:35:30;;;;;;;20.88;12.25;;;9.80;99.90;;;;;;5027719;28;20057;-81
2021/11/21 12:38:06;;;;;;;26.52;13.88;;;9.80;99.90;;;;;;5021591;28;20029;-81